| time (UTC) | temp F | wind direction | speed knots | gust knots | rain 1hr in | rain 24hr in | rain mn in | humidity % | barometer mb |
| 20260906144759 | 74 | 100 | 0.9 | 5.2 | 0.00 | 0.00 | 0.00 | 86 | 1018.3 |
| 20260906143259 | 73 | 74 | 0.9 | 4.3 | 0.00 | 0.00 | 0.00 | 87 | 1018.4 |
| 20260906141757 | 73 | 92 | 1.7 | 6.1 | 0.00 | 0.00 | 0.00 | 88 | 1018.2 |
| 20260906140259 | 72 | 90 | 1.7 | 5.2 | 0.00 | 0.00 | 0.00 | 89 | 1017.8 |
| 20260906134757 | 72 | 111 | 1.7 | 6.1 | 0.00 | 0.00 | 0.00 | 89 | 1017.8 |
| 20260906133248 | 71 | 73 | 1.7 | 3.5 | 0.00 | 0.00 | 0.00 | 90 | 1017.8 |
| 20260906131748 | 71 | 50 | 0.9 | 6.1 | 0.00 | 0.00 | 0.00 | 90 | 1017.9 |
| 20260906130248 | 70 | 28 | 1.7 | 4.3 | 0.00 | 0.00 | 0.00 | 91 | 1017.8 |
| 20260906124735 | 70 | 0 | 1.7 | 7.0 | 0.00 | 0.00 | 0.00 | 91 | 1017.9 |
| 20260906123233 | 69 | 35 | 2.6 | 7.0 | 0.00 | 0.00 | 0.00 | 91 | 1017.9 |
| 20260906121730 | 69 | 5 | 2.6 | 4.3 | 0.00 | 0.00 | 0.00 | 91 | 1017.7 |
| 20260906120222 | 69 | 19 | 0.9 | 3.5 | 0.00 | 0.00 | 0.00 | 91 | 1017.5 |
| 20260906114716 | 69 | 325 | 1.7 | 4.3 | 0.00 | 0.00 | 0.00 | 91 | 1017.1 |
| 20260906113217 | 69 | 34 | 0.9 | 4.3 | 0.00 | 0.00 | 0.00 | 91 | 1017.0 |
| 20260906111713 | 69 | 20 | 1.7 | 5.2 | 0.00 | 0.00 | 0.00 | 91 | 1016.7 |
| 20260906110209 | 69 | 17 | 0.9 | 3.5 | 0.00 | 0.00 | 0.00 | 91 | 1016.5 |
| 20260906104710 | 69 | 5 | 0.9 | 5.2 | 0.00 | 0.00 | 0.00 | 91 | 1016.2 |
| 20260906103201 | 69 | 26 | 0.9 | 3.5 | 0.00 | 0.00 | 0.00 | 90 | 1016.1 |
| 20260906101655 | 70 | 22 | 1.7 | 3.5 | 0.00 | 0.00 | 0.00 | 90 | 1016.1 |
| 20260906100147 | 70 | 22 | 1.7 | 4.3 | 0.00 | 0.00 | 0.00 | 90 | 1016.3 |
| 20260906094648 | 70 | 10 | 1.7 | 4.3 | 0.00 | 0.00 | 0.00 | 90 | 1016.1 |
| 20260906093140 | 70 | 5 | 0.0 | 2.6 | 0.00 | 0.00 | 0.00 | 89 | 1015.9 |
| 20260906091639 | 71 | 18 | 0.0 | 2.6 | 0.00 | 0.00 | 0.00 | 89 | 1016.0 |
| 20260906090137 | 71 | 27 | 0.0 | 2.6 | 0.00 | 0.00 | 0.00 | 89 | 1015.9 |
| 20260906084638 | 71 | 31 | 0.9 | 2.6 | 0.00 | 0.00 | 0.00 | 89 | 1016.0 |
| 20260906083130 | 71 | 33 | 0.9 | 2.6 | 0.00 | 0.00 | 0.00 | 88 | 1016.0 |
| 20260906081624 | 71 | 86 | 0.0 | 0.0 | 0.00 | 0.00 | 0.00 | 88 | 1016.1 |
| 20260906080122 | 72 | 86 | 0.0 | 2.6 | 0.00 | 0.00 | 0.00 | 88 | 1016.1 |
| 20260906074621 | 72 | 90 | 0.0 | 1.7 | 0.00 | 0.00 | 0.00 | 88 | 1016.1 |
| 20260906073115 | 72 | 82 | 1.7 | 4.3 | 0.00 | 0.00 | 0.00 | 88 | 1016.3 |
| 20260906071614 | 72 | 42 | 0.9 | 3.5 | 0.00 | 0.00 | 0.00 | 87 | 1016.3 |
| 20260906070109 | 72 | 84 | 1.7 | 4.3 | 0.00 | 0.00 | 0.00 | 87 | 1016.2 |
| 20260906064605 | 73 | 22 | 0.9 | 3.5 | 0.00 | 0.00 | 0.00 | 88 | 1016.3 |
| 20260906063100 | 73 | 24 | 1.7 | 5.2 | 0.00 | 0.00 | 0.00 | 89 | 1016.4 |
| 20260906061557 | 74 | 113 | 0.9 | 3.5 | 0.00 | 0.00 | 0.00 | 88 | 1016.4 |
| 20260906060039 | 74 | 22 | 0.9 | 2.6 | 0.00 | 0.00 | 0.00 | 88 | 1016.5 |
| 20260906054536 | 74 | 49 | 1.7 | 4.3 | 0.00 | 0.00 | 0.00 | 88 | 1016.2 |
| 20260906053037 | 74 | 18 | 1.7 | 7.0 | 0.00 | 0.00 | 0.00 | 88 | 1016.1 |
| 20260906051534 | 74 | 17 | 1.7 | 7.8 | 0.00 | 0.00 | 0.00 | 87 | 1016.0 |
| 20260906050029 | 75 | 17 | 0.9 | 2.6 | 0.00 | 0.00 | 0.00 | 87 | 1015.8 |
| 20260906044523 | 75 | 27 | 0.9 | 3.5 | 0.00 | 0.00 | 0.00 | 87 | 1015.6 |
| 20260906043019 | 75 | 32 | 0.9 | 3.5 | 0.00 | 0.00 | 0.00 | 86 | 1015.5 |
| 20260906041517 | 75 | 80 | 0.0 | 0.0 | 0.00 | 0.00 | 0.00 | 86 | 1015.3 |
| 20260906040004 | 76 | 61 | 0.0 | 0.0 | 0.00 | 0.00 | 0.00 | 86 | 1015.1 |
| 20260906034458 | 76 | 61 | 0.0 | 2.6 | 0.00 | 0.00 | 0.00 | 85 | 1015.0 |
| 20260906032954 | 76 | 61 | 0.9 | 2.6 | 0.00 | 0.00 | 0.00 | 85 | 1014.8 |
| 20260906031451 | 76 | 25 | 0.9 | 3.5 | 0.00 | 0.00 | 0.00 | 85 | 1014.9 |
| 20260906025947 | 77 | 18 | 0.9 | 3.5 | 0.00 | 0.00 | 0.00 | 84 | 1014.9 |
| 20260906024442 | 77 | 34 | 1.7 | 7.0 | 0.00 | 0.00 | 0.00 | 84 | 1014.8 |
| 20260906022939 | 78 | 54 | 1.7 | 5.2 | 0.00 | 0.00 | 0.00 | 84 | 1014.6 |
| 20260906021439 | 78 | 44 | 1.7 | 6.1 | 0.00 | 0.00 | 0.00 | 83 | 1014.5 |
| 20260906015935 | 79 | 49 | 2.6 | 10.4 | 0.00 | 0.00 | 0.00 | 83 | 1014.0 |
| 20260906014435 | 79 | 69 | 2.6 | 7.0 | 0.00 | 0.00 | 0.00 | 83 | 1014.2 |
| 20260906012935 | 80 | 67 | 2.6 | 5.2 | 0.00 | 0.00 | 0.00 | 82 | 1014.1 |
| 20260906011435 | 81 | 54 | 2.6 | 7.0 | 0.00 | 0.00 | 0.00 | 81 | 1014.0 |
| 20260906005935 | 82 | 24 | 2.6 | 9.6 | 0.00 | 0.00 | 0.00 | 80 | 1013.7 |
| 20260906004433 | 83 | 44 | 3.5 | 11.3 | 0.00 | 0.00 | 0.00 | 78 | 1013.7 |
| 20260906002927 | 84 | 39 | 3.5 | 8.7 | 0.00 | 0.00 | 0.00 | 78 | 1013.5 |
| 20260906001420 | 85 | 10 | 2.6 | 5.2 | 0.00 | 0.00 | 0.00 | 77 | 1013.5 |
| 20260905235918 | 86 | 9 | 3.5 | 8.7 | 0.00 | 0.00 | 0.00 | 75 | 1013.3 |
| 20260905234417 | 87 | 21 | 3.5 | 7.8 | 0.00 | 0.00 | 0.00 | 75 | 1013.2 |
| 20260905232913 | 88 | 32 | 4.3 | 9.6 | 0.00 | 0.00 | 0.00 | 73 | 1013.0 |
| 20260905231410 | 89 | 13 | 3.5 | 8.7 | 0.00 | 0.00 | 0.00 | 71 | 1013.0 |
| 20260905225908 | 90 | 22 | 5.2 | 10.4 | 0.00 | 0.00 | 0.00 | 69 | 1012.8 |
| 20260905224406 | 91 | 21 | 2.6 | 7.8 | 0.00 | 0.00 | 0.00 | 68 | 1012.9 |
| 20260905222856 | 91 | 38 | 2.6 | 7.0 | 0.00 | 0.00 | 0.00 | 67 | 1012.8 |
| 20260905221356 | 92 | 17 | 1.7 | 5.2 | 0.00 | 0.00 | 0.00 | 65 | 1012.9 |
| 20260905215848 | 94 | 26 | 1.7 | 4.3 | 0.00 | 0.00 | 0.00 | 64 | 1012.8 |
| 20260905214350 | 93 | 5 | 2.6 | 7.8 | 0.00 | 0.00 | 0.00 | 65 | 1012.9 |
| 20260905212847 | 94 | 327 | 0.9 | 3.5 | 0.00 | 0.00 | 0.00 | 64 | 1012.8 |
| 20260905211346 | 93 | 42 | 1.7 | 5.2 | 0.00 | 0.00 | 0.00 | 65 | 1012.9 |
| 20260905205844 | 92 | 25 | 1.7 | 7.8 | 0.00 | 0.00 | 0.00 | 66 | 1013.1 |
| 20260905204342 | 92 | 348 | 0.9 | 4.3 | 0.00 | 0.00 | 0.00 | 68 | 1013.2 |
| 20260905202840 | 91 | 22 | 0.9 | 3.5 | 0.00 | 0.00 | 0.00 | 67 | 1013.1 |
| 20260905201331 | 92 | 337 | 1.7 | 5.2 | 0.00 | 0.00 | 0.00 | 67 | 1013.3 |
| 20260905195828 | 92 | 26 | 1.7 | 6.1 | 0.00 | 0.00 | 0.00 | 68 | 1013.4 |
| 20260905194328 | 92 | 346 | 2.6 | 7.0 | 0.00 | 0.00 | 0.00 | 69 | 1013.5 |
| 20260905192827 | 92 | 36 | 1.7 | 5.2 | 0.00 | 0.00 | 0.00 | 67 | 1013.8 |
| 20260905191324 | 92 | 88 | 1.7 | 4.3 | 0.00 | 0.00 | 0.00 | 67 | 1013.7 |
| 20260905185814 | 92 | 5 | 1.7 | 6.1 | 0.00 | 0.00 | 0.00 | 67 | 1013.7 |
| 20260905184311 | 93 | 29 | 2.6 | 7.0 | 0.00 | 0.00 | 0.00 | 65 | 1013.7 |
| 20260905182813 | 93 | 5 | 1.7 | 8.7 | 0.00 | 0.00 | 0.00 | 67 | 1013.7 |
| 20260905181303 | 92 | 336 | 1.7 | 7.0 | 0.00 | 0.00 | 0.00 | 66 | 1013.9 |
| 20260905175802 | 92 | 334 | 1.7 | 7.0 | 0.00 | 0.00 | 0.00 | 65 | 1014.0 |
| 20260905174258 | 92 | 288 | 1.7 | 8.7 | 0.00 | 0.00 | 0.00 | 69 | 1014.2 |
| 20260905172756 | 91 | 21 | 1.7 | 7.0 | 0.00 | 0.00 | 0.00 | 69 | 1014.3 |
| 20260905171251 | 90 | 45 | 1.7 | 7.0 | 0.00 | 0.00 | 0.00 | 70 | 1014.4 |
| 20260905165751 | 90 | 79 | 1.7 | 7.0 | 0.00 | 0.00 | 0.00 | 70 | 1014.4 |
| 20260905164250 | 90 | 63 | 3.5 | 7.0 | 0.00 | 0.00 | 0.00 | 71 | 1014.5 |
| 20260905162748 | 89 | 30 | 2.6 | 7.0 | 0.00 | 0.00 | 0.00 | 71 | 1014.4 |
| 20260905161246 | 89 | 18 | 1.7 | 6.1 | 0.00 | 0.00 | 0.00 | 72 | 1014.4 |
| 20260905155746 | 89 | 18 | 2.6 | 7.8 | 0.00 | 0.00 | 0.00 | 71 | 1014.4 |
| 20260905154245 | 89 | 355 | 1.7 | 7.0 | 0.00 | 0.00 | 0.00 | 73 | 1014.4 |
| 20260905152746 | 88 | 305 | 2.6 | 6.1 | 0.00 | 0.00 | 0.00 | 72 | 1014.4 |
| 20260905151237 | 87 | 5 | 0.9 | 3.5 | 0.00 | 0.00 | 0.00 | 73 | 1014.2 |
| 20260905145724 | 86 | 344 | 0.9 | 2.6 | 0.00 | 0.00 | 0.00 | 73 | 1014.0 |